Climatologie pour Saint-Brevin les Pins
Jour • Résumé pour décembre 3, 2017 Système :  Métrique    Anglais   Mixte
« - 1 jour
+ 1 jour »
Jour Semaine Mois Année Personnalisé
  Maximum : Minimum : Moyenne :
Température sous abri : 11.8 °C 1.4 °C 6.9 °C
Point de rosée : 9.0 °C 0.9 °C 5.8 °C
Humidité : 98 % 81 % 93 %
Vitesse du vent : 11.3 km/h 0.0 km/h 1.1 km/h
Rafale : 12.9 km/h - -
Direction :- - West
Pression : 1032.4 hPa 1028.3 hPa -
Précipitations : 0.3 mm    
Historical Graphs
 
 
Tableau de données pour décembre 3, 2017
Heure Tempé Pt rosée Pression Vent Vitesse Rafale Humidité Taux pluie (/hr) Soleil
00:00 2.0 °C 1.4 °C 1029.7 hPa Calm     96 % 0.0 mm 0 W/m2
00:10 2.2 °C 1.6 °C 1029.7 hPa Calm     96 % 0.0 mm 0 W/m2
00:15 2.2 °C 1.6 °C 1029.3 hPa Calm     96 % 0.0 mm 0 W/m2
00:20 2.2 °C 1.7 °C 1029.3 hPa Calm     96 % 0.0 mm 0 W/m2
00:30 2.2 °C 1.6 °C 1029.7 hPa Calm     96 % 0.0 mm 0 W/m2
00:35 2.2 °C 1.6 °C 1029.7 hPa Calm     96 % 0.0 mm 0 W/m2
00:40 2.1 °C 1.5 °C 1029.7 hPa Calm     96 % 0.0 mm 0 W/m2
00:45 2.1 °C 1.5 °C 1029.7 hPa Calm     96 % 0.0 mm 0 W/m2
00:50 2.1 °C 1.5 °C 1029.7 hPa Calm     96 % 0.0 mm 0 W/m2
00:55 2.1 °C 1.5 °C 1029.7 hPa Calm     96 % 0.0 mm 0 W/m2
01:00 1.9 °C 1.4 °C 1029.3 hPa Calm     96 % 0.0 mm 0 W/m2
01:15 1.4 °C 0.9 °C 1029.3 hPa Calm     96 % 0.0 mm 0 W/m2
01:25 1.6 °C 1.0 °C 1029.3 hPa Calm     96 % 0.0 mm 0 W/m2
01:30 1.7 °C 1.2 °C 1029.3 hPa Calm     96 % 0.0 mm 0 W/m2
01:40 1.8 °C 1.2 °C 1029.3 hPa Calm     96 % 0.0 mm 0 W/m2
01:45 1.8 °C 1.3 °C 1029.0 hPa Calm     96 % 0.0 mm 0 W/m2
01:55 1.9 °C 1.3 °C 1029.0 hPa Calm     96 % 0.0 mm 0 W/m2
02:00 2.0 °C 1.4 °C 1029.0 hPa Calm     96 % 0.0 mm 0 W/m2
02:05 2.1 °C 1.5 °C 1029.0 hPa Calm     96 % 0.0 mm 0 W/m2
02:10 2.2 °C 1.6 °C 1029.0 hPa Calm     96 % 0.0 mm 0 W/m2
02:15 2.2 °C 1.7 °C 1029.0 hPa Calm     96 % 0.0 mm 0 W/m2
02:20 2.3 °C 1.7 °C 1029.0 hPa Calm     96 % 0.0 mm 0 W/m2
02:25 2.3 °C 1.8 °C 1029.0 hPa Calm     96 % 0.0 mm 0 W/m2
02:30 2.4 °C 1.9 °C 1029.0 hPa Calm     96 % 0.0 mm 0 W/m2
02:40 2.6 °C 2.0 °C 1029.0 hPa Calm     96 % 0.0 mm 0 W/m2
02:45 2.5 °C 1.9 °C 1029.0 hPa Calm     96 % 0.0 mm 0 W/m2
02:50 2.5 °C 1.9 °C 1029.0 hPa Calm     96 % 0.0 mm 0 W/m2
03:00 2.2 °C 1.7 °C 1029.0 hPa Calm     96 % 0.0 mm 0 W/m2
03:05 2.2 °C 1.6 °C 1029.0 hPa Calm     96 % 0.0 mm 0 W/m2
03:10 2.1 °C 1.5 °C 1029.0 hPa Calm     96 % 0.0 mm 0 W/m2
03:15 2.2 °C 1.6 °C 1029.0 hPa Calm     96 % 0.0 mm 0 W/m2
03:20 2.2 °C 1.6 °C 1029.0 hPa Calm     96 % 0.0 mm 0 W/m2
03:25 2.2 °C 1.6 °C 1029.0 hPa Calm     96 % 0.0 mm 0 W/m2
03:30 2.2 °C 1.6 °C 1029.0 hPa Calm     96 % 0.0 mm 0 W/m2
03:35 2.2 °C 1.6 °C 1028.7 hPa Calm     96 % 0.0 mm 0 W/m2
03:40 2.2 °C 1.7 °C 1028.7 hPa Calm     96 % 0.0 mm 0 W/m2
03:45 2.1 °C 1.5 °C 1028.7 hPa Calm     96 % 0.0 mm 0 W/m2
03:50 2.2 °C 1.7 °C 1028.7 hPa Calm     96 % 0.0 mm 0 W/m2
03:55 2.2 °C 1.7 °C 1029.0 hPa Calm     96 % 0.0 mm 0 W/m2
04:00 2.3 °C 1.8 °C 1028.7 hPa Calm     96 % 0.0 mm 0 W/m2
04:05 2.4 °C 1.9 °C 1028.7 hPa Calm     96 % 0.0 mm 0 W/m2
04:10 2.6 °C 2.0 °C 1028.7 hPa Calm     96 % 0.0 mm 0 W/m2
04:15 2.6 °C 2.0 °C 1028.7 hPa Calm     96 % 0.0 mm 0 W/m2
04:20 2.6 °C 2.0 °C 1028.3 hPa Calm     96 % 0.0 mm 0 W/m2
04:30 2.6 °C 2.0 °C 1028.3 hPa Calm   3.2 km/h 96 % 0.0 mm 0 W/m2
04:35 2.5 °C 1.9 °C 1028.3 hPa Calm   3.2 km/h 96 % 0.0 mm 0 W/m2
04:40 2.6 °C 2.0 °C 1028.3 hPa Calm   3.2 km/h 96 % 0.0 mm 0 W/m2
04:50 2.7 °C 2.1 °C 1028.3 hPa Calm     96 % 0.0 mm 0 W/m2
05:05 2.9 °C 2.3 °C 1028.3 hPa Calm     96 % 0.0 mm 0 W/m2
05:15 3.0 °C 2.4 °C 1028.3 hPa Calm     96 % 0.0 mm 0 W/m2
05:20 3.1 °C 2.5 °C 1028.3 hPa Calm     96 % 0.0 mm 0 W/m2
05:25 3.2 °C 2.6 °C 1028.3 hPa ENE 3.2 km/h 3.2 km/h 96 % 0.0 mm 0 W/m2
05:30 3.3 °C 2.8 °C 1028.3 hPa Calm   3.2 km/h 96 % 0.0 mm 0 W/m2
05:35 3.4 °C 2.9 °C 1028.3 hPa Calm   3.2 km/h 96 % 0.0 mm 0 W/m2
05:40 3.6 °C 3.0 °C 1028.3 hPa ENE 1.6 km/h 3.2 km/h 96 % 0.0 mm 0 W/m2
05:45 3.7 °C 3.1 °C 1028.3 hPa Calm   4.8 km/h 96 % 0.0 mm 0 W/m2
05:55 3.9 °C 3.3 °C 1028.3 hPa Calm   3.2 km/h 96 % 0.0 mm 0 W/m2
06:10 4.1 °C 3.5 °C 1028.3 hPa Calm     96 % 0.0 mm 0 W/m2
06:15 4.1 °C 3.5 °C 1028.3 hPa Calm     96 % 0.0 mm 0 W/m2
06:20 4.2 °C 3.6 °C 1028.3 hPa Calm     96 % 0.0 mm 0 W/m2
06:25 4.2 °C 3.6 °C 1028.3 hPa Calm     96 % 0.3 mm 0 W/m2
06:30 4.2 °C 3.6 °C 1028.3 hPa Calm     96 % 0.3 mm 0 W/m2
06:35 4.2 °C 3.6 °C 1028.3 hPa Calm     96 % 0.3 mm 0 W/m2
06:45 4.3 °C 3.8 °C 1028.3 hPa Calm     96 % 0.3 mm 0 W/m2
06:50 4.4 °C 4.0 °C 1028.3 hPa Calm     97 % 0.3 mm 0 W/m2
06:55 4.4 °C 4.0 °C 1028.3 hPa Calm     97 % 0.3 mm 0 W/m2
07:00 4.5 °C 4.1 °C 1028.3 hPa Calm     97 % 0.3 mm 0 W/m2
07:15 4.5 °C 4.1 °C 1028.3 hPa Calm   4.8 km/h 97 % 0.3 mm 0 W/m2
07:20 4.4 °C 4.0 °C 1028.3 hPa Calm   4.8 km/h 97 % 0.3 mm 0 W/m2
07:25 4.4 °C 4.0 °C 1028.3 hPa Calm   3.2 km/h 97 % 0.0 mm 0 W/m2
07:40 4.3 °C 3.9 °C 1028.7 hPa Calm     97 % 0.0 mm 0 W/m2
07:50 4.3 °C 3.8 °C 1028.7 hPa Calm     97 % 0.0 mm 0 W/m2
08:00 4.2 °C 3.8 °C 1028.7 hPa Calm     97 % 0.0 mm 0 W/m2
08:10 4.2 °C 3.8 °C 1028.7 hPa Calm     97 % 0.0 mm 0 W/m2
08:20 4.2 °C 3.7 °C 1028.7 hPa Calm     97 % 0.0 mm 0 W/m2
08:25 4.3 °C 3.8 °C 1029.0 hPa Calm     97 % 0.0 mm 0 W/m2
08:30 4.2 °C 3.7 °C 1029.0 hPa Calm     97 % 0.0 mm 0 W/m2
08:35 4.2 °C 3.8 °C 1029.0 hPa Calm     97 % 0.0 mm 0 W/m2
08:40 4.2 °C 3.8 °C 1029.0 hPa Calm     97 % 0.0 mm 0 W/m2
08:45 4.3 °C 3.8 °C 1029.0 hPa Calm     97 % 0.0 mm 0 W/m2
08:55 4.3 °C 3.9 °C 1028.7 hPa Calm     97 % 0.0 mm 7 W/m2
09:00 4.3 °C 3.9 °C 1029.0 hPa Calm     97 % 0.0 mm 11 W/m2
09:05 4.4 °C 4.0 °C 1029.0 hPa Calm     97 % 0.0 mm 16 W/m2
09:10 4.5 °C 4.1 °C 1029.0 hPa Calm     97 % 0.0 mm 19 W/m2
09:15 4.6 °C 4.2 °C 1028.7 hPa Calm     97 % 0.0 mm 19 W/m2
09:25 4.8 °C 4.3 °C 1029.0 hPa Calm     97 % 0.0 mm 23 W/m2
09:30 4.8 °C 4.4 °C 1029.0 hPa Calm     97 % 0.0 mm 30 W/m2
09:35 4.9 °C 4.5 °C 1029.0 hPa Calm     97 % 0.0 mm 37 W/m2
09:45 5.1 °C 4.8 °C 1029.0 hPa Calm     98 % 0.0 mm 53 W/m2
09:55 5.4 °C 5.1 °C 1029.0 hPa Calm     98 % 0.0 mm 65 W/m2
10:00 5.6 °C 5.3 °C 1029.0 hPa Calm     98 % 0.0 mm 77 W/m2
10:10 5.9 °C 5.7 °C 1029.0 hPa Calm     98 % 0.0 mm 135 W/m2
10:15 6.4 °C 6.2 °C 1029.3 hPa Calm     98 % 0.0 mm 183 W/m2
10:20 7.0 °C 6.7 °C 1029.0 hPa Calm     98 % 0.0 mm 190 W/m2
10:25 7.4 °C 7.1 °C 1029.3 hPa Calm     98 % 0.0 mm 253 W/m2
10:30 7.9 °C 7.6 °C 1029.3 hPa WNW 3.2 km/h 6.4 km/h 98 % 0.0 mm 132 W/m2
10:35 8.0 °C 7.7 °C 1029.3 hPa WNW 3.2 km/h 6.4 km/h 98 % 0.0 mm 118 W/m2
10:40 7.9 °C 7.5 °C 1029.3 hPa West 1.6 km/h 4.8 km/h 97 % 0.0 mm 118 W/m2
10:45 8.1 °C 7.6 °C 1029.3 hPa Calm   4.8 km/h 97 % 0.0 mm 127 W/m2
10:50 8.1 °C 7.7 °C 1029.3 hPa West 3.2 km/h 4.8 km/h 97 % 0.0 mm 128 W/m2
10:55 8.1 °C 7.6 °C 1029.3 hPa Calm   6.4 km/h 97 % 0.0 mm 153 W/m2
11:00 8.3 °C 7.8 °C 1029.3 hPa Calm   6.4 km/h 97 % 0.0 mm 214 W/m2
11:05 8.4 °C 7.8 °C 1029.3 hPa Calm   4.8 km/h 96 % 0.0 mm 174 W/m2
11:10 8.4 °C 7.8 °C 1029.3 hPa Calm   4.8 km/h 96 % 0.0 mm 139 W/m2
11:15 8.4 °C 7.7 °C 1029.3 hPa WNW 3.2 km/h 6.4 km/h 95 % 0.0 mm 141 W/m2
11:20 8.6 °C 7.8 °C 1029.7 hPa Calm   6.4 km/h 95 % 0.0 mm 125 W/m2
11:25 8.6 °C 7.7 °C 1029.7 hPa Calm   4.8 km/h 94 % 0.0 mm 141 W/m2
11:30 8.7 °C 7.8 °C 1029.7 hPa NNW 3.2 km/h 4.8 km/h 94 % 0.0 mm 169 W/m2
11:35 8.8 °C 7.7 °C 1029.7 hPa Calm   4.8 km/h 93 % 0.0 mm 153 W/m2
11:40 8.8 °C 7.8 °C 1029.7 hPa Calm   4.8 km/h 93 % 0.0 mm 156 W/m2
11:45 8.9 °C 7.7 °C 1029.7 hPa NNW 1.6 km/h 3.2 km/h 92 % 0.0 mm 185 W/m2
11:50 8.9 °C 7.6 °C 1029.7 hPa NNW 1.6 km/h 4.8 km/h 91 % 0.0 mm 190 W/m2
11:55 8.9 °C 7.5 °C 1029.7 hPa Calm   6.4 km/h 91 % 0.0 mm 167 W/m2
12:00 9.3 °C 8.0 °C 1029.7 hPa NW 4.8 km/h 6.4 km/h 92 % 0.0 mm 185 W/m2
12:05 9.2 °C 7.8 °C 1029.7 hPa WNW 3.2 km/h 4.8 km/h 91 % 0.0 mm 107 W/m2
12:10 9.1 °C 7.7 °C 1029.3 hPa Calm   4.8 km/h 91 % 0.0 mm 134 W/m2
12:15 9.2 °C 7.8 °C 1029.3 hPa WNW 1.6 km/h 4.8 km/h 91 % 0.0 mm 188 W/m2
12:20 9.5 °C 8.1 °C 1029.3 hPa WNW 3.2 km/h 6.4 km/h 91 % 0.0 mm 258 W/m2
12:25 9.6 °C 8.0 °C 1029.3 hPa WNW 4.8 km/h 6.4 km/h 90 % 0.0 mm 202 W/m2
12:30 9.7 °C 8.2 °C 1029.3 hPa West 3.2 km/h 6.4 km/h 90 % 0.0 mm 160 W/m2
12:35 9.7 °C 8.0 °C 1029.3 hPa WNW 4.8 km/h 6.4 km/h 89 % 0.0 mm 160 W/m2
12:40 9.7 °C 7.9 °C 1029.3 hPa Calm   6.4 km/h 89 % 0.0 mm 163 W/m2
12:45 9.8 °C 8.2 °C 1029.3 hPa Calm   6.4 km/h 90 % 0.0 mm 156 W/m2
12:55 10.0 °C 8.1 °C 1029.3 hPa Calm   9.7 km/h 88 % 0.0 mm 155 W/m2
13:00 10.1 °C 8.0 °C 1029.3 hPa NNW 1.6 km/h 9.7 km/h 87 % 0.0 mm 404 W/m2
13:05 10.9 °C 8.8 °C 1029.3 hPa North 4.8 km/h 6.4 km/h 87 % 0.0 mm 332 W/m2
13:10 11.2 °C 8.6 °C 1029.0 hPa NW 8.0 km/h 11.3 km/h 84 % 0.0 mm 392 W/m2
13:15 11.2 °C 8.6 °C 1029.3 hPa North 1.6 km/h 11.3 km/h 84 % 0.0 mm 362 W/m2
13:20 11.4 °C 8.8 °C 1029.3 hPa NNE 4.8 km/h 11.3 km/h 84 % 0.0 mm 462 W/m2
13:25 11.8 °C 8.8 °C 1029.0 hPa NNW 6.4 km/h 12.9 km/h 82 % 0.0 mm 369 W/m2
13:30 11.6 °C 9.0 °C 1029.0 hPa West 11.3 km/h 12.9 km/h 84 % 0.0 mm 202 W/m2
13:35 11.3 °C 8.7 °C 1029.0 hPa NW 6.4 km/h 11.3 km/h 84 % 0.0 mm 163 W/m2
13:40 10.8 °C 8.0 °C 1029.3 hPa North 6.4 km/h 11.3 km/h 83 % 0.0 mm 167 W/m2
13:45 10.7 °C 8.1 °C 1029.0 hPa NNW 3.2 km/h 11.3 km/h 84 % 0.0 mm 176 W/m2
13:50 10.7 °C 8.1 °C 1029.0 hPa WNW 4.8 km/h 8.0 km/h 84 % 0.0 mm 193 W/m2
13:55 10.8 °C 8.0 °C 1029.0 hPa NNE 6.4 km/h 9.7 km/h 83 % 0.0 mm 128 W/m2
14:00 10.7 °C 7.9 °C 1029.0 hPa NW 1.6 km/h 9.7 km/h 83 % 0.0 mm 97 W/m2
14:05 10.3 °C 7.6 °C 1029.0 hPa WNW 4.8 km/h 8.0 km/h 83 % 0.0 mm 186 W/m2
14:10 10.8 °C 8.0 °C 1029.0 hPa NW 4.8 km/h 8.0 km/h 83 % 0.0 mm 323 W/m2
14:15 11.4 °C 8.5 °C 1029.0 hPa Calm   8.0 km/h 82 % 0.0 mm 378 W/m2
14:25 11.2 °C 8.0 °C 1029.0 hPa Calm   11.3 km/h 81 % 0.0 mm 165 W/m2
14:30 10.8 °C 7.9 °C 1029.0 hPa WNW 4.8 km/h 11.3 km/h 82 % 0.0 mm 123 W/m2
14:35 10.6 °C 7.8 °C 1029.0 hPa Calm   8.0 km/h 83 % 0.0 mm 174 W/m2
14:40 10.8 °C 8.0 °C 1029.3 hPa WNW 4.8 km/h 6.4 km/h 83 % 0.0 mm 188 W/m2
14:45 10.7 °C 7.5 °C 1029.0 hPa Calm   6.4 km/h 81 % 0.0 mm 148 W/m2
14:50 10.8 °C 8.2 °C 1029.3 hPa North 1.6 km/h 8.0 km/h 84 % 0.0 mm 160 W/m2
14:55 10.8 °C 8.2 °C 1029.3 hPa NNW 1.6 km/h 11.3 km/h 84 % 0.0 mm 144 W/m2
15:00 10.9 °C 8.3 °C 1029.0 hPa NNW 3.2 km/h 11.3 km/h 84 % 0.0 mm 128 W/m2
15:10 10.8 °C 8.2 °C 1029.0 hPa NW 4.8 km/h 9.7 km/h 84 % 0.0 mm 98 W/m2
15:15 10.7 °C 8.0 °C 1029.0 hPa NNW 4.8 km/h 8.0 km/h 83 % 0.0 mm 79 W/m2
15:20 10.7 °C 8.1 °C 1029.0 hPa Calm   8.0 km/h 84 % 0.0 mm 90 W/m2
15:25 10.7 °C 8.2 °C 1029.0 hPa North 4.8 km/h 8.0 km/h 85 % 0.0 mm 98 W/m2
15:30 10.7 °C 8.1 °C 1029.0 hPa NNW 4.8 km/h 8.0 km/h 84 % 0.0 mm 90 W/m2
15:35 10.7 °C 8.1 °C 1029.0 hPa North 6.4 km/h 11.3 km/h 84 % 0.0 mm 91 W/m2
15:40 10.6 °C 8.0 °C 1029.0 hPa North 4.8 km/h 11.3 km/h 84 % 0.0 mm 83 W/m2
15:45 10.6 °C 8.1 °C 1029.0 hPa NNE 4.8 km/h 11.3 km/h 85 % 0.0 mm 62 W/m2
15:50 10.4 °C 8.0 °C 1029.0 hPa NNE 4.8 km/h 9.7 km/h 85 % 0.0 mm 54 W/m2
15:55 10.4 °C 8.0 °C 1029.0 hPa North 3.2 km/h 9.7 km/h 85 % 0.0 mm 70 W/m2
16:00 10.3 °C 7.9 °C 1029.0 hPa Calm   9.7 km/h 85 % 0.0 mm 54 W/m2
16:05 10.3 °C 7.9 °C 1029.0 hPa Calm   11.3 km/h 85 % 0.0 mm 54 W/m2
16:10 10.2 °C 7.9 °C 1029.0 hPa NNW 4.8 km/h 11.3 km/h 86 % 0.0 mm 53 W/m2
16:15 10.0 °C 7.8 °C 1029.0 hPa Calm   8.0 km/h 86 % 0.0 mm 44 W/m2
16:20 9.7 °C 7.6 °C 1029.3 hPa NNW 3.2 km/h 8.0 km/h 87 % 0.0 mm 37 W/m2
16:25 9.5 °C 7.6 °C 1029.3 hPa NW 1.6 km/h 8.0 km/h 88 % 0.0 mm 51 W/m2
16:30 9.4 °C 7.7 °C 1029.3 hPa Calm   8.0 km/h 89 % 0.0 mm 42 W/m2
16:35 9.5 °C 7.8 °C 1029.3 hPa NW 1.6 km/h 8.0 km/h 89 % 0.0 mm 42 W/m2
16:40 9.6 °C 7.7 °C 1029.3 hPa NW 1.6 km/h 6.4 km/h 88 % 0.0 mm 42 W/m2
16:45 9.6 °C 7.9 °C 1029.3 hPa Calm   6.4 km/h 89 % 0.0 mm 26 W/m2
16:50 9.6 °C 7.7 °C 1029.3 hPa NW 4.8 km/h 6.4 km/h 88 % 0.0 mm 16 W/m2
16:55 9.6 °C 7.7 °C 1029.3 hPa Calm   6.4 km/h 88 % 0.0 mm 12 W/m2
17:00 9.4 °C 7.7 °C 1029.3 hPa Calm   6.4 km/h 89 % 0.0 mm 9 W/m2
17:05 9.3 °C 7.6 °C 1029.7 hPa North 6.4 km/h 6.4 km/h 89 % 0.0 mm 7 W/m2
17:10 9.3 °C 7.6 °C 1029.7 hPa North 6.4 km/h 9.7 km/h 89 % 0.0 mm 5 W/m2
17:15 9.2 °C 7.5 °C 1029.7 hPa Calm   9.7 km/h 89 % 0.0 mm 0 W/m2
17:20 9.2 °C 7.4 °C 1029.7 hPa North 6.4 km/h 8.0 km/h 89 % 0.0 mm 0 W/m2
17:25 9.0 °C 7.4 °C 1029.7 hPa Calm   6.4 km/h 90 % 0.0 mm 0 W/m2
17:30 8.9 °C 7.4 °C 1029.7 hPa Calm   8.0 km/h 90 % 0.0 mm 0 W/m2
17:35 8.9 °C 7.4 °C 1029.7 hPa NW 3.2 km/h 9.7 km/h 90 % 0.0 mm 0 W/m2
17:40 8.9 °C 7.3 °C 1029.7 hPa NW 1.6 km/h 9.7 km/h 90 % 0.0 mm 0 W/m2
17:45 8.9 °C 7.4 °C 1029.7 hPa Calm   8.0 km/h 90 % 0.0 mm 0 W/m2
17:50 8.9 °C 7.6 °C 1029.7 hPa Calm   6.4 km/h 91 % 0.0 mm 0 W/m2
17:55 8.9 °C 7.5 °C 1030.0 hPa Calm   6.4 km/h 91 % 0.0 mm 0 W/m2
18:00 8.6 °C 7.2 °C 1030.0 hPa Calm   8.0 km/h 91 % 0.0 mm 0 W/m2
18:05 8.4 °C 7.1 °C 1030.0 hPa Calm   8.0 km/h 91 % 0.0 mm 0 W/m2
18:10 8.2 °C 7.0 °C 1030.0 hPa Calm   4.8 km/h 92 % 0.0 mm 0 W/m2
18:15 8.1 °C 6.8 °C 1030.0 hPa Calm   3.2 km/h 92 % 0.0 mm 0 W/m2
18:20 7.9 °C 6.7 °C 1030.0 hPa Calm   3.2 km/h 92 % 0.0 mm 0 W/m2
18:25 7.8 °C 6.8 °C 1030.0 hPa Calm   4.8 km/h 93 % 0.0 mm 0 W/m2
18:30 7.8 °C 6.8 °C 1030.0 hPa Calm   4.8 km/h 93 % 0.0 mm 0 W/m2
18:35 7.8 °C 6.7 °C 1030.0 hPa Calm   3.2 km/h 93 % 0.0 mm 0 W/m2
18:40 7.7 °C 6.8 °C 1030.0 hPa Calm   1.6 km/h 94 % 0.0 mm 0 W/m2
18:45 7.7 °C 6.8 °C 1030.4 hPa Calm   1.6 km/h 94 % 0.0 mm 0 W/m2
18:50 7.7 °C 6.8 °C 1030.4 hPa Calm   1.6 km/h 94 % 0.0 mm 0 W/m2
18:55 7.7 °C 6.8 °C 1030.4 hPa Calm   3.2 km/h 94 % 0.0 mm 0 W/m2
19:00 7.7 °C 6.8 °C 1030.4 hPa Calm   3.2 km/h 94 % 0.0 mm 0 W/m2
19:05 7.7 °C 6.8 °C 1030.4 hPa Calm   3.2 km/h 94 % 0.0 mm 0 W/m2
19:10 7.8 °C 6.9 °C 1030.4 hPa Calm   1.6 km/h 94 % 0.0 mm 0 W/m2
19:15 7.9 °C 7.2 °C 1030.7 hPa Calm   1.6 km/h 95 % 0.0 mm 0 W/m2
19:20 7.9 °C 7.0 °C 1030.7 hPa Calm     94 % 0.0 mm 0 W/m2
19:30 8.1 °C 7.1 °C 1030.7 hPa Calm     94 % 0.0 mm 0 W/m2
19:35 8.1 °C 7.1 °C 1030.7 hPa Calm     94 % 0.0 mm 0 W/m2
19:40 8.1 °C 7.4 °C 1030.7 hPa Calm     95 % 0.0 mm 0 W/m2
19:45 8.1 °C 7.1 °C 1030.7 hPa Calm     94 % 0.0 mm 0 W/m2
19:50 8.0 °C 7.2 °C 1030.7 hPa Calm   1.6 km/h 95 % 0.0 mm 0 W/m2
19:55 8.1 °C 7.3 °C 1031.0 hPa NW 4.8 km/h 6.4 km/h 95 % 0.0 mm 0 W/m2
20:00 8.2 °C 7.4 °C 1031.0 hPa NW 3.2 km/h 8.0 km/h 95 % 0.0 mm 0 W/m2
20:05 8.3 °C 7.5 °C 1031.0 hPa NW 3.2 km/h 8.0 km/h 95 % 0.0 mm 0 W/m2
20:10 8.4 °C 7.7 °C 1031.0 hPa Calm   8.0 km/h 95 % 0.0 mm 0 W/m2
20:15 8.5 °C 7.7 °C 1031.0 hPa WNW 3.2 km/h 6.4 km/h 95 % 0.0 mm 0 W/m2
20:20 8.6 °C 7.8 °C 1031.0 hPa Calm   6.4 km/h 95 % 0.0 mm 0 W/m2
20:25 8.6 °C 7.8 °C 1031.0 hPa WNW 1.6 km/h 6.4 km/h 95 % 0.0 mm 0 W/m2
20:30 8.7 °C 7.9 °C 1031.0 hPa WNW 3.2 km/h 6.4 km/h 95 % 0.0 mm 0 W/m2
20:35 8.8 °C 8.0 °C 1031.0 hPa NW 3.2 km/h 8.0 km/h 95 % 0.0 mm 0 W/m2
20:40 8.8 °C 8.2 °C 1031.0 hPa NW 4.8 km/h 8.0 km/h 96 % 0.0 mm 0 W/m2
20:45 8.7 °C 8.1 °C 1031.0 hPa NW 1.6 km/h 4.8 km/h 96 % 0.0 mm 0 W/m2
20:50 8.7 °C 8.1 °C 1031.0 hPa Calm   4.8 km/h 96 % 0.0 mm 0 W/m2
20:55 8.7 °C 8.1 °C 1031.0 hPa Calm   4.8 km/h 96 % 0.0 mm 0 W/m2
21:00 8.7 °C 8.1 °C 1031.0 hPa Calm   3.2 km/h 96 % 0.0 mm 0 W/m2
21:05 8.5 °C 7.9 °C 1031.0 hPa Calm   3.2 km/h 96 % 0.0 mm 0 W/m2
21:10 8.3 °C 7.7 °C 1031.0 hPa Calm   3.2 km/h 96 % 0.0 mm 0 W/m2
21:20 8.2 °C 7.6 °C 1031.4 hPa Calm     96 % 0.0 mm 0 W/m2
21:25 8.1 °C 7.5 °C 1031.4 hPa Calm     96 % 0.0 mm 0 W/m2
21:30 8.1 °C 7.7 °C 1031.4 hPa Calm     97 % 0.0 mm 0 W/m2
21:35 8.1 °C 7.6 °C 1031.4 hPa Calm     97 % 0.0 mm 0 W/m2
21:40 8.1 °C 7.6 °C 1031.4 hPa Calm     97 % 0.0 mm 0 W/m2
21:45 8.0 °C 7.6 °C 1031.4 hPa Calm     97 % 0.0 mm 0 W/m2
21:50 7.9 °C 7.5 °C 1031.4 hPa Calm     97 % 0.0 mm 0 W/m2
21:55 7.8 °C 7.4 °C 1031.4 hPa Calm     97 % 0.0 mm 0 W/m2
22:05 7.8 °C 7.4 °C 1031.7 hPa Calm     97 % 0.0 mm 0 W/m2
22:10 7.8 °C 7.4 °C 1031.7 hPa Calm     97 % 0.0 mm 0 W/m2
22:15 7.8 °C 7.3 °C 1031.7 hPa Calm     97 % 0.0 mm 0 W/m2
22:20 7.8 °C 7.3 °C 1031.7 hPa Calm     97 % 0.0 mm 0 W/m2
22:25 7.8 °C 7.3 °C 1031.7 hPa Calm     97 % 0.0 mm 0 W/m2
22:30 7.8 °C 7.3 °C 1031.7 hPa Calm     97 % 0.0 mm 0 W/m2
22:35 7.8 °C 7.3 °C 1031.7 hPa Calm   3.2 km/h 97 % 0.0 mm 0 W/m2
22:40 7.8 °C 7.4 °C 1031.7 hPa Calm   4.8 km/h 97 % 0.0 mm 0 W/m2
22:45 7.8 °C 7.4 °C 1032.1 hPa Calm   4.8 km/h 97 % 0.0 mm 0 W/m2
22:50 7.9 °C 7.4 °C 1032.1 hPa NW 1.6 km/h 4.8 km/h 97 % 0.0 mm 0 W/m2
22:55 7.9 °C 7.5 °C 1032.1 hPa NW 1.6 km/h 4.8 km/h 97 % 0.0 mm 0 W/m2
23:05 7.9 °C 7.5 °C 1032.1 hPa Calm   3.2 km/h 97 % 0.0 mm 0 W/m2
23:10 7.9 °C 7.5 °C 1032.1 hPa Calm     97 % 0.0 mm 0 W/m2
23:15 8.0 °C 7.6 °C 1032.1 hPa NW 3.2 km/h 4.8 km/h 97 % 0.0 mm 0 W/m2
23:20 8.0 °C 7.6 °C 1032.1 hPa Calm   4.8 km/h 97 % 0.0 mm 0 W/m2
23:25 8.0 °C 7.6 °C 1032.1 hPa NW 1.6 km/h 6.4 km/h 97 % 0.0 mm 0 W/m2
23:30 8.0 °C 7.6 °C 1032.1 hPa Calm   6.4 km/h 97 % 0.0 mm 0 W/m2
23:35 8.1 °C 7.6 °C 1032.1 hPa Calm   6.4 km/h 97 % 0.0 mm 0 W/m2
23:40 8.1 °C 7.6 °C 1032.4 hPa Calm   3.2 km/h 97 % 0.0 mm 0 W/m2
23:45 8.2 °C 7.9 °C 1032.4 hPa Calm     98 % 0.0 mm 0 W/m2
23:50 8.2 °C 7.7 °C 1032.4 hPa Calm   8.0 km/h 97 % 0.0 mm 0 W/m2
23:55 8.3 °C 8.0 °C 1032.4 hPa NW 4.8 km/h 8.0 km/h 98 % 0.0 mm 0 W/m2
Avec l'autorisation de Weather Underground - 1.5 mb